sensor_id;sensor_type;location;lat;lon;timestamp;pressure;altitude;pressure_sealevel;temperature;humidity
3294;BME280;1659;51.470;6.770;2023-11-19T00:01:31;100782.19;;;10.26;100.00
3294;BME280;1659;51.470;6.770;2023-11-19T00:04:00;100794.44;;;10.30;100.00
3294;BME280;1659;51.470;6.770;2023-11-19T00:06:26;100786.47;;;10.34;100.00
3294;BME280;1659;51.470;6.770;2023-11-19T00:08:53;100782.81;;;10.42;100.00
3294;BME280;1659;51.470;6.770;2023-11-19T00:11:19;100800.28;;;10.49;100.00
3294;BME280;1659;51.470;6.770;2023-11-19T00:13:46;100784.31;;;10.55;100.00
3294;BME280;1659;51.470;6.770;2023-11-19T00:16:13;100784.25;;;10.60;100.00
3294;BME280;1659;51.470;6.770;2023-11-19T00:18:39;100784.09;;;10.67;100.00
3294;BME280;1659;51.470;6.770;2023-11-19T00:21:07;100778.66;;;10.75;100.00
3294;BME280;1659;51.470;6.770;2023-11-19T00:23:35;100769.75;;;10.81;100.00
3294;BME280;1659;51.470;6.770;2023-11-19T00:26:02;100774.00;;;10.88;100.00
3294;BME280;1659;51.470;6.770;2023-11-19T00:28:31;100771.16;;;10.97;100.00
3294;BME280;1659;51.470;6.770;2023-11-19T00:30:58;100775.38;;;11.06;100.00
3294;BME280;1659;51.470;6.770;2023-11-19T00:33:24;100763.78;;;11.13;100.00
3294;BME280;1659;51.470;6.770;2023-11-19T00:35:51;100754.78;;;11.22;100.00
3294;BME280;1659;51.470;6.770;2023-11-19T00:38:19;100751.94;;;11.31;100.00
3294;BME280;1659;51.470;6.770;2023-11-19T00:40:46;100751.78;;;11.39;100.00
3294;BME280;1659;51.470;6.770;2023-11-19T00:43:13;100754.28;;;11.45;100.00
3294;BME280;1659;51.470;6.770;2023-11-19T00:45:39;100748.88;;;11.49;100.00
3294;BME280;1659;51.470;6.770;2023-11-19T00:48:06;100745.31;;;11.52;100.00
3294;BME280;1659;51.470;6.770;2023-11-19T00:50:33;100739.06;;;11.55;100.00
3294;BME280;1659;51.470;6.770;2023-11-19T00:52:59;100732.84;;;11.57;100.00
3294;BME280;1659;51.470;6.770;2023-11-19T00:55:28;100734.53;;;11.60;100.00
3294;BME280;1659;51.470;6.770;2023-11-19T00:57:54;100729.09;;;11.66;100.00
3294;BME280;1659;51.470;6.770;2023-11-19T01:00:21;100724.63;;;11.68;100.00
3294;BME280;1659;51.470;6.770;2023-11-19T01:02:49;100721.09;;;11.69;100.00
3294;BME280;1659;51.470;6.770;2023-11-19T01:05:16;100728.97;;;11.70;100.00
3294;BME280;1659;51.470;6.770;2023-11-19T01:07:46;100741.28;;;11.73;100.00
3294;BME280;1659;51.470;6.770;2023-11-19T01:10:13;100734.19;;;11.74;100.00
3294;BME280;1659;51.470;6.770;2023-11-19T01:12:42;100727.09;;;11.76;100.00
3294;BME280;1659;51.470;6.770;2023-11-19T01:15:09;100724.38;;;11.79;100.00
3294;BME280;1659;51.470;6.770;2023-11-19T01:17:36;100718.16;;;11.81;100.00
3294;BME280;1659;51.470;6.770;2023-11-19T01:20:04;100727.75;;;11.85;100.00
3294;BME280;1659;51.470;6.770;2023-11-19T01:22:31;100732.22;;;11.83;100.00
3294;BME280;1659;51.470;6.770;2023-11-19T01:24:58;100725.94;;;11.87;100.00
3294;BME280;1659;51.470;6.770;2023-11-19T01:27:25;100731.22;;;11.87;100.00
3294;BME280;1659;51.470;6.770;2023-11-19T01:29:53;100732.94;;;11.90;100.00
3294;BME280;1659;51.470;6.770;2023-11-19T01:32:20;100740.00;;;11.91;100.00
3294;BME280;1659;51.470;6.770;2023-11-19T01:34:46;100746.13;;;11.93;100.00
3294;BME280;1659;51.470;6.770;2023-11-19T01:37:13;100749.69;;;11.92;100.00
3294;BME280;1659;51.470;6.770;2023-11-19T01:39:39;100747.00;;;11.94;100.00
3294;BME280;1659;51.470;6.770;2023-11-19T01:42:06;100739.88;;;11.96;100.00
3294;BME280;1659;51.470;6.770;2023-11-19T01:44:32;100718.66;;;11.97;100.00
3294;BME280;1659;51.470;6.770;2023-11-19T01:47:01;100723.03;;;11.98;100.00
3294;BME280;1659;51.470;6.770;2023-11-19T01:49:30;100723.97;;;11.97;100.00
3294;BME280;1659;51.470;6.770;2023-11-19T01:51:58;100724.81;;;11.98;100.00
3294;BME280;1659;51.470;6.770;2023-11-19T01:54:25;100722.19;;;11.98;100.00
3294;BME280;1659;51.470;6.770;2023-11-19T01:56:53;100729.22;;;11.99;100.00
3294;BME280;1659;51.470;6.770;2023-11-19T01:59:23;100719.47;;;12.01;100.00
3294;BME280;1659;51.470;6.770;2023-11-19T02:01:52;100707.13;;;12.00;100.00
3294;BME280;1659;51.470;6.770;2023-11-19T02:04:21;100709.69;;;12.03;100.00
3294;BME280;1659;51.470;6.770;2023-11-19T02:06:48;100700.88;;;12.02;100.00
3294;BME280;1659;51.470;6.770;2023-11-19T02:09:18;100690.25;;;12.04;100.00
3294;BME280;1659;51.470;6.770;2023-11-19T02:11:46;100676.09;;;12.05;100.00
3294;BME280;1659;51.470;6.770;2023-11-19T02:14:14;100666.41;;;12.04;100.00
3294;BME280;1659;51.470;6.770;2023-11-19T02:16:41;100673.44;;;12.05;100.00
3294;BME280;1659;51.470;6.770;2023-11-19T02:19:07;100675.25;;;12.03;100.00
3294;BME280;1659;51.470;6.770;2023-11-19T02:21:37;100679.72;;;12.01;100.00
3294;BME280;1659;51.470;6.770;2023-11-19T02:24:06;100670.91;;;12.00;100.00
3294;BME280;1659;51.470;6.770;2023-11-19T02:26:38;100671.81;;;11.99;100.00
3294;BME280;1659;51.470;6.770;2023-11-19T02:29:08;100672.66;;;12.01;100.00
3294;BME280;1659;51.470;6.770;2023-11-19T02:31:35;100670.00;;;12.01;100.00
3294;BME280;1659;51.470;6.770;2023-11-19T02:34:01;100675.22;;;12.04;100.00
3294;BME280;1659;51.470;6.770;2023-11-19T02:36:28;100667.28;;;12.04;100.00
3294;BME280;1659;51.470;6.770;2023-11-19T02:38:55;100672.56;;;12.04;100.00
3294;BME280;1659;51.470;6.770;2023-11-19T02:41:21;100676.91;;;12.07;100.00
3294;BME280;1659;51.470;6.770;2023-11-19T02:43:48;100666.28;;;12.08;100.00
3294;BME280;1659;51.470;6.770;2023-11-19T02:46:16;100671.53;;;12.10;100.00
3294;BME280;1659;51.470;6.770;2023-11-19T02:48:43;100666.16;;;12.13;100.00
3294;BME280;1659;51.470;6.770;2023-11-19T02:51:09;100657.28;;;12.14;100.00
3294;BME280;1659;51.470;6.770;2023-11-19T02:53:36;100657.25;;;12.16;100.00
3294;BME280;1659;51.470;6.770;2023-11-19T02:56:05;100659.81;;;12.19;100.00
3294;BME280;1659;51.470;6.770;2023-11-19T02:58:42;100649.22;;;12.19;100.00
3294;BME280;1659;51.470;6.770;2023-11-19T03:01:10;100651.78;;;12.22;100.00
3294;BME280;1659;51.470;6.770;2023-11-19T03:03:45;100650.81;;;12.24;100.00
3294;BME280;1659;51.470;6.770;2023-11-19T03:06:19;100648.19;;;12.24;100.00
3294;BME280;1659;51.470;6.770;2023-11-19T03:08:47;100653.44;;;12.26;100.00
3294;BME280;1659;51.470;6.770;2023-11-19T03:11:13;100658.69;;;12.27;100.00
3294;BME280;1659;51.470;6.770;2023-11-19T03:13:40;100646.31;;;12.28;100.00
3294;BME280;1659;51.470;6.770;2023-11-19T03:16:07;100639.25;;;12.28;100.00
3294;BME280;1659;51.470;6.770;2023-11-19T03:18:34;100642.81;;;12.27;100.00
3294;BME280;1659;51.470;6.770;2023-11-19T03:21:02;100655.19;;;12.27;100.00
3294;BME280;1659;51.470;6.770;2023-11-19T03:23:28;100651.75;;;12.23;100.00
3294;BME280;1659;51.470;6.770;2023-11-19T03:25:55;100641.31;;;12.17;100.00
3294;BME280;1659;51.470;6.770;2023-11-19T03:28:22;100662.69;;;12.11;100.00
3294;BME280;1659;51.470;6.770;2023-11-19T03:30:48;100641.66;;;12.05;100.00
3294;BME280;1659;51.470;6.770;2023-11-19T03:33:15;100639.94;;;12.04;100.00
3294;BME280;1659;51.470;6.770;2023-11-19T03:35:41;100646.16;;;12.01;100.00
3294;BME280;1659;51.470;6.770;2023-11-19T03:38:09;100648.00;;;11.99;100.00
3294;BME280;1659;51.470;6.770;2023-11-19T03:40:36;100648.09;;;11.95;100.00
3294;BME280;1659;51.470;6.770;2023-11-19T03:43:04;100655.22;;;11.93;100.00
3294;BME280;1659;51.470;6.770;2023-11-19T03:45:31;100668.47;;;11.93;100.00
3294;BME280;1659;51.470;6.770;2023-11-19T03:47:57;100657.13;;;11.86;100.00
3294;BME280;1659;51.470;6.770;2023-11-19T03:50:24;100663.41;;;11.82;100.00
3294;BME280;1659;51.470;6.770;2023-11-19T03:52:50;100665.31;;;11.77;100.00
3294;BME280;1659;51.470;6.770;2023-11-19T03:55:19;100660.13;;;11.72;100.00
3294;BME280;1659;51.470;6.770;2023-11-19T03:57:45;100653.16;;;11.68;100.00
3294;BME280;1659;51.470;6.770;2023-11-19T04:00:14;100660.31;;;11.64;100.00
3294;BME280;1659;51.470;6.770;2023-11-19T04:02:41;100665.63;;;11.64;100.00
3294;BME280;1659;51.470;6.770;2023-11-19T04:05:08;100667.44;;;11.62;100.00
3294;BME280;1659;51.470;6.770;2023-11-19T04:07:35;100665.63;;;11.64;100.00
3294;BME280;1659;51.470;6.770;2023-11-19T04:10:01;100665.63;;;11.64;100.00
3294;BME280;1659;51.470;6.770;2023-11-19T04:12:29;100656.81;;;11.64;100.00
3294;BME280;1659;51.470;6.770;2023-11-19T04:14:56;100651.53;;;11.64;100.00
3294;BME280;1659;51.470;6.770;2023-11-19T04:17:23;100660.28;;;11.66;100.00
3294;BME280;1659;51.470;6.770;2023-11-19T04:19:50;100674.47;;;11.62;100.00
3294;BME280;1659;51.470;6.770;2023-11-19T04:22:17;100656.09;;;11.57;100.00
3294;BME280;1659;51.470;6.770;2023-11-19T04:24:44;100662.31;;;11.55;100.00
3294;BME280;1659;51.470;6.770;2023-11-19T04:27:11;100664.13;;;11.52;100.00
3294;BME280;1659;51.470;6.770;2023-11-19T04:29:38;100676.47;;;11.53;100.00
3294;BME280;1659;51.470;6.770;2023-11-19T04:32:05;100668.50;;;11.55;100.00
3294;BME280;1659;51.470;6.770;2023-11-19T04:34:33;100677.25;;;11.57;100.00
3294;BME280;1659;51.470;6.770;2023-11-19T04:36:59;100693.06;;;11.60;100.00
3294;BME280;1659;51.470;6.770;2023-11-19T04:39:28;100685.88;;;11.65;100.00
3294;BME280;1659;51.470;6.770;2023-11-19T04:41:55;100676.16;;;11.66;100.00
3294;BME280;1659;51.470;6.770;2023-11-19T04:44:21;100670.84;;;11.67;100.00
3294;BME280;1659;51.470;6.770;2023-11-19T04:46:49;100677.00;;;11.68;100.00
3294;BME280;1659;51.470;6.770;2023-11-19T04:49:16;100677.84;;;11.68;100.00
3294;BME280;1659;51.470;6.770;2023-11-19T04:51:45;100689.44;;;11.64;100.00
3294;BME280;1659;51.470;6.770;2023-11-19T04:54:12;100690.28;;;11.65;100.00
3294;BME280;1659;51.470;6.770;2023-11-19T04:56:39;100752.00;;;11.67;100.00
3294;BME280;1659;51.470;6.770;2023-11-19T04:59:06;100694.41;;;11.78;100.00
3294;BME280;1659;51.470;6.770;2023-11-19T05:01:34;100702.09;;;11.87;100.00
3294;BME280;1659;51.470;6.770;2023-11-19T05:04:02;100693.19;;;11.92;100.00
3294;BME280;1659;51.470;6.770;2023-11-19T05:06:29;100688.78;;;11.92;100.00
3294;BME280;1659;51.470;6.770;2023-11-19T05:08:56;100691.47;;;11.90;100.00
3294;BME280;1659;51.470;6.770;2023-11-19T05:11:23;100691.53;;;11.86;100.00
3294;BME280;1659;51.470;6.770;2023-11-19T05:13:49;100703.16;;;11.80;100.00
3294;BME280;1659;51.470;6.770;2023-11-19T05:16:16;100693.41;;;11.82;100.00
3294;BME280;1659;51.470;6.770;2023-11-19T05:18:43;100687.19;;;11.83;100.00
3294;BME280;1659;51.470;6.770;2023-11-19T05:21:11;100697.84;;;11.82;100.00
3294;BME280;1659;51.470;6.770;2023-11-19T05:23:38;100687.25;;;11.82;100.00
3294;BME280;1659;51.470;6.770;2023-11-19T05:26:07;100704.00;;;11.82;100.00
3294;BME280;1659;51.470;6.770;2023-11-19T05:28:33;100691.53;;;11.86;100.00
3294;BME280;1659;51.470;6.770;2023-11-19T05:31:00;100694.97;;;11.89;100.00
3294;BME280;1659;51.470;6.770;2023-11-19T05:33:26;100693.19;;;11.92;100.00
3294;BME280;1659;51.470;6.770;2023-11-19T05:35:53;100695.81;;;11.93;100.00
3294;BME280;1659;51.470;6.770;2023-11-19T05:38:21;100707.25;;;11.95;100.00
3294;BME280;1659;51.470;6.770;2023-11-19T05:40:47;100701.03;;;11.96;100.00
3294;BME280;1659;51.470;6.770;2023-11-19T05:43:14;100707.25;;;11.95;100.00
3294;BME280;1659;51.470;6.770;2023-11-19T05:45:42;100688.78;;;11.92;100.00
3294;BME280;1659;51.470;6.770;2023-11-19T05:48:08;100699.41;;;11.89;100.00
3294;BME280;1659;51.470;6.770;2023-11-19T05:50:35;100698.63;;;11.85;100.00
3294;BME280;1659;51.470;6.770;2023-11-19T05:53:02;100697.88;;;11.80;100.00
3294;BME280;1659;51.470;6.770;2023-11-19T05:55:33;100693.53;;;11.78;100.00
3294;BME280;1659;51.470;6.770;2023-11-19T05:58:00;100693.53;;;11.78;100.00
3294;BME280;1659;51.470;6.770;2023-11-19T06:00:27;100705.00;;;11.77;100.00
3294;BME280;1659;51.470;6.770;2023-11-19T06:02:53;100701.53;;;11.75;100.00
3294;BME280;1659;51.470;6.770;2023-11-19T06:05:20;100711.34;;;11.71;100.00
3294;BME280;1659;51.470;6.770;2023-11-19T06:07:46;100710.56;;;11.66;100.00
3294;BME280;1659;51.470;6.770;2023-11-19T06:10:13;100700.91;;;11.63;100.00
3294;BME280;1659;51.470;6.770;2023-11-19T06:12:44;100695.75;;;11.59;100.00
3294;BME280;1659;51.470;6.770;2023-11-19T06:15:11;100685.06;;;11.62;100.00
3294;BME280;1659;51.470;6.770;2023-11-19T06:17:38;100695.75;;;11.59;100.00
3294;BME280;1659;51.470;6.770;2023-11-19T06:20:06;100699.28;;;11.58;100.00
3294;BME280;1659;51.470;6.770;2023-11-19T06:22:33;100693.19;;;11.56;100.00
3294;BME280;1659;51.470;6.770;2023-11-19T06:24:59;100681.75;;;11.53;100.00
3294;BME280;1659;51.470;6.770;2023-11-19T06:27:26;100689.84;;;11.47;100.00
3294;BME280;1659;51.470;6.770;2023-11-19T06:29:53;100697.84;;;11.44;100.00
3294;BME280;1659;51.470;6.770;2023-11-19T06:32:20;100690.88;;;11.40;100.00
3294;BME280;1659;51.470;6.770;2023-11-19T06:34:47;100700.63;;;11.38;100.00
3294;BME280;1659;51.470;6.770;2023-11-19T06:37:13;100704.28;;;11.34;100.00
3294;BME280;1659;51.470;6.770;2023-11-19T06:39:40;100702.47;;;11.36;100.00
3294;BME280;1659;51.470;6.770;2023-11-19T06:42:06;100705.09;;;11.36;100.00
3294;BME280;1659;51.470;6.770;2023-11-19T06:44:33;100706.78;;;11.39;100.00
3294;BME280;1659;51.470;6.770;2023-11-19T06:47:01;100730.66;;;11.36;100.00
3294;BME280;1659;51.470;6.770;2023-11-19T06:49:28;100722.72;;;11.36;100.00
3294;BME280;1659;51.470;6.770;2023-11-19T06:51:54;100719.16;;;11.38;100.00
3294;BME280;1659;51.470;6.770;2023-11-19T06:54:22;100727.19;;;11.33;100.00
3294;BME280;1659;51.470;6.770;2023-11-19T06:56:48;100726.31;;;11.33;100.00
3294;BME280;1659;51.470;6.770;2023-11-19T06:59:15;100733.44;;;11.31;100.00
3294;BME280;1659;51.470;6.770;2023-11-19T07:01:41;100731.69;;;11.30;100.00
3294;BME280;1659;51.470;6.770;2023-11-19T07:04:11;100730.88;;;11.26;100.00
3294;BME280;1659;51.470;6.770;2023-11-19T07:06:38;100733.63;;;11.22;100.00
3294;BME280;1659;51.470;6.770;2023-11-19T07:09:06;100733.69;;;11.20;100.00
3294;BME280;1659;51.470;6.770;2023-11-19T07:11:35;100733.63;;;11.22;100.00
3294;BME280;1659;51.470;6.770;2023-11-19T07:14:04;100733.69;;;11.20;100.00
3294;BME280;1659;51.470;6.770;2023-11-19T07:16:31;100740.66;;;11.23;100.00
3294;BME280;1659;51.470;6.770;2023-11-19T07:18:58;100738.03;;;11.21;100.00
3294;BME280;1659;51.470;6.770;2023-11-19T07:21:27;100742.47;;;11.21;100.00
3294;BME280;1659;51.470;6.770;2023-11-19T07:23:54;100747.78;;;11.19;100.00
3294;BME280;1659;51.470;6.770;2023-11-19T07:26:20;100751.31;;;11.20;100.00
3294;BME280;1659;51.470;6.770;2023-11-19T07:28:47;100763.66;;;11.19;100.00
3294;BME280;1659;51.470;6.770;2023-11-19T07:31:14;100777.72;;;11.21;100.00
3294;BME280;1659;51.470;6.770;2023-11-19T07:33:41;100780.34;;;11.23;100.00
3294;BME280;1659;51.470;6.770;2023-11-19T07:36:08;100786.47;;;11.25;100.00
3294;BME280;1659;51.470;6.770;2023-11-19T07:38:36;100777.56;;;11.29;100.00
3294;BME280;1659;51.470;6.770;2023-11-19T07:41:04;100781.03;;;11.32;100.00
3294;BME280;1659;51.470;6.770;2023-11-19T07:43:32;100789.78;;;11.34;100.00
3294;BME280;1659;51.470;6.770;2023-11-19T07:45:58;100806.50;;;11.37;100.00
3294;BME280;1659;51.470;6.770;2023-11-19T07:48:25;100802.97;;;11.38;100.00
3294;BME280;1659;51.470;6.770;2023-11-19T07:50:52;100795.81;;;11.43;100.00
3294;BME280;1659;51.470;6.770;2023-11-19T07:53:19;100793.03;;;11.47;100.00
3294;BME280;1659;51.470;6.770;2023-11-19T07:55:47;100802.53;;;11.56;100.00
3294;BME280;1659;51.470;6.770;2023-11-19T07:58:14;100805.06;;;11.62;100.00
3294;BME280;1659;51.470;6.770;2023-11-19T08:00:40;100807.47;;;11.73;100.00
3294;BME280;1659;51.470;6.770;2023-11-19T08:03:07;100819.63;;;11.82;100.00
3294;BME280;1659;51.470;6.770;2023-11-19T08:05:33;100822.91;;;11.93;100.00
3294;BME280;1659;51.470;6.770;2023-11-19T08:07:59;100820.94;;;12.03;100.00
3294;BME280;1659;51.470;6.770;2023-11-19T08:10:26;100812.75;;;12.12;100.00
3294;BME280;1659;51.470;6.770;2023-11-19T08:12:55;100828.47;;;12.20;100.00
3294;BME280;1659;51.470;6.770;2023-11-19T08:15:21;100823.00;;;12.26;100.00
3294;BME280;1659;51.470;6.770;2023-11-19T08:17:48;100827.28;;;12.32;100.00
3294;BME280;1659;51.470;6.770;2023-11-19T08:20:15;100822.66;;;12.40;100.00
3294;BME280;1659;51.470;6.770;2023-11-19T08:22:41;100826.81;;;12.50;100.00
3294;BME280;1659;51.470;6.770;2023-11-19T08:25:08;100830.22;;;12.55;100.00
3294;BME280;1659;51.470;6.770;2023-11-19T08:27:35;100826.81;;;12.50;100.00
3294;BME280;1659;51.470;6.770;2023-11-19T08:30:04;100833.13;;;12.46;100.00
3294;BME280;1659;51.470;6.770;2023-11-19T08:32:31;100826.78;;;12.52;100.00
3294;BME280;1659;51.470;6.770;2023-11-19T08:34:57;100821.16;;;12.64;100.00
3294;BME280;1659;51.470;6.770;2023-11-19T08:37:24;100819.38;;;12.64;100.00
3294;BME280;1659;51.470;6.770;2023-11-19T08:39:51;100831.84;;;12.61;100.00
3294;BME280;1659;51.470;6.770;2023-11-19T08:42:18;100828.94;;;12.70;100.00
3294;BME280;1659;51.470;6.770;2023-11-19T08:44:49;100823.97;;;12.91;100.00
3294;BME280;1659;51.470;6.770;2023-11-19T08:47:17;100824.38;;;13.08;100.00
3294;BME280;1659;51.470;6.770;2023-11-19T08:49:44;100825.72;;;13.23;100.00
3294;BME280;1659;51.470;6.770;2023-11-19T08:52:10;100822.88;;;13.29;100.00
3294;BME280;1659;51.470;6.770;2023-11-19T08:54:37;100817.66;;;13.26;100.00
3294;BME280;1659;51.470;6.770;2023-11-19T08:57:04;100830.75;;;13.34;100.00
3294;BME280;1659;51.470;6.770;2023-11-19T08:59:32;100830.53;;;13.41;100.00
3294;BME280;1659;51.470;6.770;2023-11-19T09:01:59;100837.84;;;13.63;100.00
3294;BME280;1659;51.470;6.770;2023-11-19T09:04:27;100839.38;;;13.72;99.35
3294;BME280;1659;51.470;6.770;2023-11-19T09:06:53;100843.22;;;13.62;97.84
3294;BME280;1659;51.470;6.770;2023-11-19T09:09:20;100835.22;;;13.63;98.09
3294;BME280;1659;51.470;6.770;2023-11-19T09:11:47;100840.31;;;13.69;97.26
3294;BME280;1659;51.470;6.770;2023-11-19T09:14:14;100846.59;;;13.67;96.87
3294;BME280;1659;51.470;6.770;2023-11-19T09:16:40;100839.53;;;13.66;96.65
3294;BME280;1659;51.470;6.770;2023-11-19T09:19:07;100828.28;;;13.57;95.61
3294;BME280;1659;51.470;6.770;2023-11-19T09:21:35;100834.72;;;13.49;95.33
3294;BME280;1659;51.470;6.770;2023-11-19T09:24:04;100828.09;;;13.34;94.95
3294;BME280;1659;51.470;6.770;2023-11-19T09:26:32;100829.28;;;13.22;95.34
3294;BME280;1659;51.470;6.770;2023-11-19T09:28:59;100833.06;;;13.13;95.63
3294;BME280;1659;51.470;6.770;2023-11-19T09:31:26;100818.94;;;13.13;95.63
3294;BME280;1659;51.470;6.770;2023-11-19T09:33:52;100825.91;;;13.17;95.74
3294;BME280;1659;51.470;6.770;2023-11-19T09:36:19;100836.13;;;13.31;94.92
3294;BME280;1659;51.470;6.770;2023-11-19T09:38:47;100829.66;;;13.41;94.30
3294;BME280;1659;51.470;6.770;2023-11-19T09:41:13;100822.19;;;13.54;93.88
3294;BME280;1659;51.470;6.770;2023-11-19T09:43:40;100829.31;;;13.82;94.10
3294;BME280;1659;51.470;6.770;2023-11-19T09:46:09;100826.91;;;14.02;93.84
3294;BME280;1659;51.470;6.770;2023-11-19T09:48:37;100836.88;;;14.22;93.28
3294;BME280;1659;51.470;6.770;2023-11-19T09:51:07;100837.03;;;14.18;92.13
3294;BME280;1659;51.470;6.770;2023-11-19T09:53:34;100840.91;;;14.07;91.98
3294;BME280;1659;51.470;6.770;2023-11-19T09:56:04;100842.16;;;13.95;91.62
3294;BME280;1659;51.470;6.770;2023-11-19T09:58:31;100825.75;;;13.83;91.60
3294;BME280;1659;51.470;6.770;2023-11-19T10:00:58;100834.06;;;13.72;91.79
3294;BME280;1659;51.470;6.770;2023-11-19T10:03:26;100831.56;;;13.66;91.11
3294;BME280;1659;51.470;6.770;2023-11-19T10:05:54;100831.66;;;13.63;91.33
3294;BME280;1659;51.470;6.770;2023-11-19T10:08:21;100828.28;;;13.57;91.47
3294;BME280;1659;51.470;6.770;2023-11-19T10:10:48;100818.66;;;13.53;91.76
3294;BME280;1659;51.470;6.770;2023-11-19T10:13:16;100824.06;;;13.50;91.84
3294;BME280;1659;51.470;6.770;2023-11-19T10:15:43;100823.03;;;13.56;91.46
3294;BME280;1659;51.470;6.770;2023-11-19T10:18:10;100826.47;;;13.59;91.23
3294;BME280;1659;51.470;6.770;2023-11-19T10:20:37;100832.69;;;13.58;90.74
3294;BME280;1659;51.470;6.770;2023-11-19T10:23:04;100830.94;;;13.57;90.44
3294;BME280;1659;51.470;6.770;2023-11-19T10:25:30;100832.44;;;13.66;90.52
3294;BME280;1659;51.470;6.770;2023-11-19T10:27:59;100823.38;;;13.73;90.92
3294;BME280;1659;51.470;6.770;2023-11-19T10:30:29;100818.88;;;13.75;89.43
3294;BME280;1659;51.470;6.770;2023-11-19T10:33:03;100811.91;;;13.71;89.00
3294;BME280;1659;51.470;6.770;2023-11-19T10:35:31;100821.63;;;13.72;89.50
3294;BME280;1659;51.470;6.770;2023-11-19T10:37:59;100819.94;;;13.70;89.13
3294;BME280;1659;51.470;6.770;2023-11-19T10:40:37;100819.16;;;13.66;89.05
3294;BME280;1659;51.470;6.770;2023-11-19T10:43:04;100812.13;;;13.65;89.12
3294;BME280;1659;51.470;6.770;2023-11-19T10:45:33;100811.31;;;13.63;89.06
3294;BME280;1659;51.470;6.770;2023-11-19T10:48:00;100809.44;;;13.67;89.32
3294;BME280;1659;51.470;6.770;2023-11-19T10:50:28;100810.97;;;13.74;89.52
3294;BME280;1659;51.470;6.770;2023-11-19T10:52:56;100802.75;;;13.82;89.22
3294;BME280;1659;51.470;6.770;2023-11-19T10:55:27;100804.41;;;13.86;88.80
3294;BME280;1659;51.470;6.770;2023-11-19T10:57:58;100812.31;;;13.87;88.63
3294;BME280;1659;51.470;6.770;2023-11-19T11:00:25;100800.81;;;13.87;88.63
3294;BME280;1659;51.470;6.770;2023-11-19T11:02:55;100811.44;;;13.87;88.01
3294;BME280;1659;51.470;6.770;2023-11-19T11:05:23;100806.84;;;13.92;88.32
3294;BME280;1659;51.470;6.770;2023-11-19T11:07:52;100800.50;;;13.96;88.26
3294;BME280;1659;51.470;6.770;2023-11-19T11:10:22;100812.03;;;13.96;88.08
3294;BME280;1659;51.470;6.770;2023-11-19T11:12:52;100806.53;;;14.01;88.10
3294;BME280;1659;51.470;6.770;2023-11-19T11:15:24;100809.06;;;14.06;87.74
3294;BME280;1659;51.470;6.770;2023-11-19T11:17:57;100800.06;;;14.10;86.83
3294;BME280;1659;51.470;6.770;2023-11-19T11:20:25;100801.34;;;14.25;86.61
3294;BME280;1659;51.470;6.770;2023-11-19T11:23:05;100788.13;;;14.48;85.91
3294;BME280;1659;51.470;6.770;2023-11-19T11:25:42;100796.63;;;14.85;85.86
3294;BME280;1659;51.470;6.770;2023-11-19T11:28:21;100802.88;;;15.33;84.57
3294;BME280;1659;51.470;6.770;2023-11-19T11:31:03;100772.13;;;15.47;82.82
3294;BME280;1659;51.470;6.770;2023-11-19T11:33:57;100790.53;;;15.54;82.78
3294;BME280;1659;51.470;6.770;2023-11-19T11:36:31;100782.00;;;15.67;82.65
3294;BME280;1659;51.470;6.770;2023-11-19T11:39:01;100785.66;;;15.65;82.35
3294;BME280;1659;51.470;6.770;2023-11-19T11:41:33;100777.38;;;15.73;81.44
3294;BME280;1659;51.470;6.770;2023-11-19T11:43:59;100779.34;;;15.67;80.86
3294;BME280;1659;51.470;6.770;2023-11-19T11:46:54;100772.53;;;15.60;79.76
3294;BME280;1659;51.470;6.770;2023-11-19T11:49:28;100767.38;;;15.56;80.10
3294;BME280;1659;51.470;6.770;2023-11-19T11:52:03;100764.66;;;15.79;79.72
3294;BME280;1659;51.470;6.770;2023-11-19T11:54:29;100759.34;;;16.01;79.81
3294;BME280;1659;51.470;6.770;2023-11-19T11:57:06;100757.06;;;16.13;79.52
3294;BME280;1659;51.470;6.770;2023-11-19T11:59:37;100756.19;;;16.34;78.61
3294;BME280;1659;51.470;6.770;2023-11-19T12:02:07;100766.72;;;16.58;77.49
3294;BME280;1659;51.470;6.770;2023-11-19T12:04:36;100757.91;;;16.56;77.19
3294;BME280;1659;51.470;6.770;2023-11-19T12:07:04;100757.97;;;16.54;76.92
3294;BME280;1659;51.470;6.770;2023-11-19T12:09:31;100766.38;;;16.45;77.07
3294;BME280;1659;51.470;6.770;2023-11-19T12:12:11;100757.09;;;16.33;75.96
3294;BME280;1659;51.470;6.770;2023-11-19T12:15:00;100758.31;;;16.04;75.32
3294;BME280;1659;51.470;6.770;2023-11-19T12:17:37;100753.28;;;15.76;76.37
3294;BME280;1659;51.470;6.770;2023-11-19T12:20:07;100745.50;;;15.47;75.86
3294;BME280;1659;51.470;6.770;2023-11-19T12:22:35;100753.22;;;15.32;76.60
3294;BME280;1659;51.470;6.770;2023-11-19T12:25:02;100741.28;;;15.18;76.13
3294;BME280;1659;51.470;6.770;2023-11-19T12:27:31;100738.06;;;15.10;76.81
3294;BME280;1659;51.470;6.770;2023-11-19T12:29:59;100725.28;;;14.96;76.90
3294;BME280;1659;51.470;6.770;2023-11-19T12:32:25;100723.94;;;14.84;77.28
3294;BME280;1659;51.470;6.770;2023-11-19T12:34:52;100732.44;;;14.70;78.01
3294;BME280;1659;51.470;6.770;2023-11-19T12:37:20;100748.97;;;14.53;77.64
3294;BME280;1659;51.470;6.770;2023-11-19T12:39:46;100740.66;;;14.38;78.16
3294;BME280;1659;51.470;6.770;2023-11-19T12:42:13;100740.31;;;14.22;78.48
3294;BME280;1659;51.470;6.770;2023-11-19T12:44:54;100746.28;;;14.03;78.88
3294;BME280;1659;51.470;6.770;2023-11-19T12:47:21;100746.16;;;13.79;79.87
3294;BME280;1659;51.470;6.770;2023-11-19T12:49:55;100744.06;;;13.61;80.49
3294;BME280;1659;51.470;6.770;2023-11-19T12:52:23;100757.75;;;13.49;80.95
3294;BME280;1659;51.470;6.770;2023-11-19T12:54:50;100749.13;;;13.42;81.26
3294;BME280;1659;51.470;6.770;2023-11-19T12:57:17;100758.16;;;13.35;81.54
3294;BME280;1659;51.470;6.770;2023-11-19T12:59:54;100760.09;;;13.30;81.67
3294;BME280;1659;51.470;6.770;2023-11-19T13:02:22;100755.63;;;13.30;81.95
3294;BME280;1659;51.470;6.770;2023-11-19T13:04:49;100759.16;;;13.31;82.37
3294;BME280;1659;51.470;6.770;2023-11-19T13:07:20;100761.72;;;13.64;82.15